Time,TemperatureF,DewpointF,PressureIn,WindDirection,WindDirectionDegrees,WindSpeedMPH,WindSpeedGustMPH,Humidity,HourlyPrecipIn,Conditions,Clouds,dailyrainin,SoftwareType,DateUTC
2013-03-24 03:00:00,64.0,53.0,30.15,SSW,210,8.0,-999.0,66,-99.99,,,-99.99,,2013-03-23 14:00:00,
2013-03-24 03:42:00,64.0,53.0,30.15,SSW,210,8.0,-999.0,66,-99.99,,,-99.99,,2013-03-23 14:42:00,
2013-03-24 03:52:00,64.0,53.0,30.15,SSW,210,8.0,-999.0,66,-99.99,,,-99.99,,2013-03-23 14:52:00,
2013-03-24 04:00:00,61.0,51.0,30.14,North,-999,5.0,-999.0,70,-99.99,,,-99.99,,2013-03-23 15:00:00,
2013-03-24 04:42:00,61.0,51.0,30.14,North,-999,5.0,-999.0,70,-99.99,,,-99.99,,2013-03-23 15:42:00,
2013-03-24 04:52:00,61.0,51.0,30.14,North,-999,5.0,-999.0,70,-99.99,,,-99.99,,2013-03-23 15:52:00,
2013-03-24 05:00:00,56.0,48.0,30.13,North,-999,2.0,-999.0,72,-99.99,,,-99.99,,2013-03-23 16:00:00,
2013-03-24 05:52:00,56.0,48.0,30.13,North,-999,2.0,-999.0,72,-99.99,,,-99.99,,2013-03-23 16:52:00,
2013-03-24 06:00:00,56.0,48.0,30.13,North,-999,1.0,-999.0,74,-99.99,,,-99.99,,2013-03-23 17:00:00,
2013-03-24 06:51:00,56.0,48.0,30.13,North,-999,1.0,-999.0,74,-99.99,,,-99.99,,2013-03-23 17:51:00,
2013-03-24 07:00:00,60.0,49.0,30.12,North,-999,2.0,-999.0,67,-99.99,,,-99.99,,2013-03-23 18:00:00,
2013-03-24 07:41:00,60.0,49.0,30.12,North,-999,2.0,-999.0,67,-99.99,,,-99.99,,2013-03-23 18:41:00,
2013-03-24 07:52:00,60.0,49.0,30.12,North,-999,2.0,-999.0,67,-99.99,,,-99.99,,2013-03-23 18:52:00,
2013-03-24 08:00:00,58.0,48.0,30.13,North,-999,1.0,-999.0,69,-99.99,,,-99.99,,2013-03-23 19:00:00,
2013-03-24 08:52:00,58.0,48.0,30.13,North,-999,1.0,-999.0,69,-99.99,,,-99.99,,2013-03-23 19:52:00,
2013-03-24 09:00:00,58.0,50.0,30.14,North,-999,2.0,-999.0,74,-99.99,,,-99.99,,2013-03-23 20:00:00,
2013-03-24 09:52:00,58.0,50.0,30.14,North,-999,2.0,-999.0,74,-99.99,,,-99.99,,2013-03-23 20:52:00,
2013-03-24 10:00:00,59.0,51.0,30.15,North,-999,2.0,-999.0,73,-99.99,,,-99.99,,2013-03-23 21:00:00,
2013-03-24 10:53:00,59.0,51.0,30.15,North,-999,2.0,-999.0,73,-99.99,,,-99.99,,2013-03-23 21:53:00,
2013-03-24 11:00:00,63.0,50.0,30.16,North,-999,1.0,-999.0,64,-99.99,,,-99.99,,2013-03-23 22:00:00,
2013-03-24 11:52:00,63.0,50.0,30.16,North,-999,1.0,-999.0,64,-99.99,,,-99.99,,2013-03-23 22:52:00,
2013-03-24 12:00:00,67.0,49.0,30.14,North,-999,5.0,-999.0,53,-99.99,,,-99.99,,2013-03-23 23:00:00,
2013-03-24 12:51:00,67.0,49.0,30.14,North,-999,5.0,-999.0,53,-99.99,,,-99.99,,2013-03-23 23:51:00,
2013-03-24 13:00:00,68.0,50.0,30.13,North,-999,8.0,-999.0,53,-99.99,,,-99.99,,2013-03-24 00:00:00,
2013-03-24 13:41:00,68.0,50.0,30.13,North,-999,8.0,-999.0,53,-99.99,,,-99.99,,2013-03-24 00:41:00,
2013-03-24 13:52:00,68.0,50.0,30.13,North,-999,8.0,-999.0,53,-99.99,,,-99.99,,2013-03-24 00:52:00,
2013-03-24 14:00:00,72.0,52.0,30.12,North,0,3.0,-999.0,49,-99.99,,,-99.99,,2013-03-24 01:00:00,
2013-03-24 14:52:00,72.0,52.0,30.12,North,0,3.0,-999.0,49,-99.99,,,-99.99,,2013-03-24 01:52:00,
2013-03-24 15:00:00,70.0,49.0,30.09,North,350,16.0,-999.0,48,-99.99,,,-99.99,,2013-03-24 02:00:00,
2013-03-24 15:52:00,70.0,49.0,30.09,North,350,16.0,-999.0,48,-99.99,,,-99.99,,2013-03-24 02:52:00,
2013-03-24 18:00:00,67.0,55.0,30.11,North,0,3.0,-999.0,63,-99.99,,,-99.99,,2013-03-24 05:00:00,
2013-03-24 18:51:00,67.0,55.0,30.11,North,0,3.0,-999.0,63,-99.99,,,-99.99,,2013-03-24 05:51:00,
2013-03-24 19:00:00,69.0,58.0,30.11,North,0,5.0,-999.0,69,-99.99,,,-99.99,,2013-03-24 06:00:00,
2013-03-24 19:41:00,69.0,58.0,30.11,North,0,5.0,-999.0,69,-99.99,,,-99.99,,2013-03-24 06:41:00,
2013-03-24 19:51:00,69.0,58.0,30.11,North,0,5.0,-999.0,69,-99.99,,,-99.99,,2013-03-24 06:51:00,
2013-03-24 20:00:00,66.0,58.0,30.11,SW,230,9.0,-999.0,76,-99.99,,,-99.99,,2013-03-24 07:00:00,
2013-03-24 20:51:00,66.0,58.0,30.11,SW,230,9.0,-999.0,76,-99.99,,,-99.99,,2013-03-24 07:51:00,
2013-03-24 21:00:00,71.0,49.0,30.12,North,0,5.0,-999.0,45,-99.99,,,-99.99,,2013-03-24 08:00:00,
2013-03-24 21:51:00,71.0,49.0,30.12,North,0,5.0,-999.0,45,-99.99,,,-99.99,,2013-03-24 08:51:00,
2013-03-24 22:00:00,64.0,50.0,30.12,North,350,37.0,-999.0,58,-99.99,,,-99.99,,2013-03-24 09:00:00,
2013-03-24 22:42:00,64.0,50.0,30.12,North,350,37.0,-999.0,58,-99.99,,,-99.99,,2013-03-24 09:42:00,
2013-03-24 22:52:00,64.0,50.0,30.12,North,350,37.0,-999.0,58,-99.99,,,-99.99,,2013-03-24 09:52:00,
2013-03-24 23:00:00,64.0,49.0,30.17,NNW,340,33.0,-999.0,58,-99.99,,,-99.99,,2013-03-24 10:00:00,
2013-03-24 23:52:00,64.0,49.0,30.17,NNW,340,33.0,-999.0,58,-99.99,,,-99.99,,2013-03-24 10:52:00,